Time;durP1;ratioP1;P1;durP2;ratioP2;P2;SDS_P1;SDS_P2;PMS_P1;PMS_P2;Temp;Humidity;BMP_temperature;BMP_pressure;BME280_temperature;BME280_humidity;BME280_pressure;Samples;Min_cycle;Max_cycle;Signal;HPM_P1;HPM_P2
2023/09/24 00:02:16;;;;;;;7.22;3.50;;;;;;;;;;5025755;28;20025;-37
2023/09/24 00:04:44;;;;;;;6.32;3.50;;;;;;;;;;5023745;28;20095;-38
2023/09/24 00:07:10;;;;;;;6.05;3.53;;;;;;;;;;5016975;28;21478;-37
2023/09/24 00:09:35;;;;;;;6.97;3.83;;;;;;;;;;5021564;28;20171;-37
2023/09/24 00:12:01;;;;;;;5.07;3.08;;;;;;;;;;5020051;28;20108;-38
2023/09/24 00:14:27;;;;;;;3.90;3.10;;;;;;;;;;5022914;28;20029;-39
2023/09/24 00:16:53;;;;;;;5.68;3.42;;;;;;;;;;5025296;28;20100;-39
2023/09/24 00:19:18;;;;;;;6.38;3.63;;;;;;;;;;5026397;28;20109;-40
2023/09/24 00:21:43;;;;;;;8.70;3.80;;;;;;;;;;5025251;28;20028;-38
2023/09/24 00:24:10;;;;;;;5.70;3.07;;;;;;;;;;5022476;28;20044;-39
2023/09/24 00:26:35;;;;;;;4.63;3.05;;;;;;;;;;5021323;28;20034;-39
2023/09/24 00:29:01;;;;;;;6.37;3.70;;;;;;;;;;5025525;28;20033;-39
2023/09/24 00:31:26;;;;;;;7.57;3.70;;;;;;;;;;5025196;28;20734;-38
2023/09/24 00:33:52;;;;;;;4.57;3.15;;;;;;;;;;5023971;28;20081;-39
2023/09/24 00:36:18;;;;;;;5.13;3.45;;;;;;;;;;5025997;28;20029;-38
2023/09/24 00:38:43;;;;;;;6.53;2.97;;;;;;;;;;5022534;28;20116;-39
2023/09/24 00:41:09;;;;;;;3.43;1.87;;;;;;;;;;5030330;28;20017;-38
2023/09/24 00:43:34;;;;;;;8.35;3.25;;;;;;;;;;5020606;28;20284;-38
2023/09/24 00:46:01;;;;;;;4.53;3.15;;;;;;;;;;5020287;28;20033;-39
2023/09/24 00:48:30;;;;;;;4.10;2.80;;;;;;;;;;5020624;28;20091;-39
2023/09/24 00:50:57;;;;;;;8.05;3.47;;;;;;;;;;5024721;28;20163;-39
2023/09/24 00:53:23;;;;;;;10.48;3.42;;;;;;;;;;5023404;28;20552;-39
2023/09/24 00:55:48;;;;;;;8.55;5.10;;;;;;;;;;5024598;28;20027;-39
2023/09/24 00:58:13;;;;;;;6.68;4.15;;;;;;;;;;5021223;28;20030;-39
2023/09/24 01:00:39;;;;;;;6.38;4.10;;;;;;;;;;5019404;28;20392;-38
2023/09/24 01:03:05;;;;;;;4.43;3.30;;;;;;;;;;5021824;28;20133;-39
2023/09/24 01:05:31;;;;;;;5.25;3.90;;;;;;;;;;5021256;28;20033;-39
2023/09/24 01:07:56;;;;;;;6.50;3.93;;;;;;;;;;5024166;28;20037;-38
2023/09/24 01:10:23;;;;;;;5.78;3.40;;;;;;;;;;5022964;28;20295;-38
2023/09/24 01:13:01;;;;;;;6.40;3.53;;;;;;;;;;5023627;28;20056;-38
2023/09/24 01:15:27;;;;;;;7.15;3.85;;;;;;;;;;5019553;28;20059;-38
2023/09/24 01:17:52;;;;;;;6.60;3.67;;;;;;;;;;5020946;28;20039;-38
2023/09/24 01:20:21;;;;;;;8.30;3.53;;;;;;;;;;5023253;28;20034;-39
2023/09/24 01:22:46;;;;;;;5.55;3.10;;;;;;;;;;5023400;28;20014;-38
2023/09/24 01:25:11;;;;;;;4.83;3.30;;;;;;;;;;5026399;28;20037;-39
2023/09/24 01:27:37;;;;;;;8.25;3.92;;;;;;;;;;5019755;28;20728;-38
2023/09/24 01:30:05;;;;;;;5.65;4.05;;;;;;;;;;5025888;28;20037;-38
2023/09/24 01:32:31;;;;;;;6.25;4.43;;;;;;;;;;5026638;28;20052;-38
2023/09/24 01:34:56;;;;;;;6.57;4.10;;;;;;;;;;5017700;28;20037;-38
2023/09/24 01:37:21;;;;;;;8.73;5.07;;;;;;;;;;5022859;28;20108;-39
2023/09/24 01:39:47;;;;;;;6.67;4.13;;;;;;;;;;5017493;28;20260;-38
2023/09/24 01:42:13;;;;;;;6.80;4.50;;;;;;;;;;5023033;28;20692;-38
2023/09/24 01:44:40;;;;;;;5.97;4.18;;;;;;;;;;5025901;28;20445;-38
2023/09/24 01:47:05;;;;;;;9.05;4.28;;;;;;;;;;5017658;28;20557;-39
2023/09/24 01:49:31;;;;;;;7.07;3.75;;;;;;;;;;5023277;28;20109;-39
2023/09/24 01:51:57;;;;;;;7.20;4.20;;;;;;;;;;5024890;28;20021;-37
2023/09/24 01:54:24;;;;;;;5.50;4.18;;;;;;;;;;5023031;28;20022;-39
2023/09/24 01:56:50;;;;;;;6.53;4.03;;;;;;;;;;5025120;28;20087;-37
2023/09/24 01:59:16;;;;;;;6.67;4.40;;;;;;;;;;5024552;28;20057;-38
2023/09/24 02:01:41;;;;;;;5.50;3.78;;;;;;;;;;5021039;28;20287;-37
2023/09/24 02:04:07;;;;;;;7.32;3.53;;;;;;;;;;5020251;28;20392;-37
2023/09/24 02:06:34;;;;;;;6.68;4.63;;;;;;;;;;5016171;28;20022;-39
2023/09/24 02:09:01;;;;;;;5.88;3.50;;;;;;;;;;5022246;28;20048;-38
2023/09/24 02:11:27;;;;;;;7.40;3.83;;;;;;;;;;5022776;28;20028;-38
2023/09/24 02:13:53;;;;;;;9.73;4.25;;;;;;;;;;5025858;28;20095;-38
2023/09/24 02:16:18;;;;;;;11.48;4.10;;;;;;;;;;5023643;28;20036;-38
2023/09/24 02:18:43;;;;;;;8.17;4.03;;;;;;;;;;5021226;28;20480;-38
2023/09/24 02:21:17;;;;;;;6.88;4.57;;;;;;;;;;5026865;28;20315;-38
2023/09/24 02:23:43;;;;;;;9.63;4.70;;;;;;;;;;5015978;28;20372;-37
2023/09/24 02:26:08;;;;;;;7.10;4.20;;;;;;;;;;5020820;28;20504;-38
2023/09/24 02:28:36;;;;;;;6.88;3.65;;;;;;;;;;5024979;28;20388;-38
2023/09/24 02:31:04;;;;;;;8.35;4.07;;;;;;;;;;5025162;28;20033;-37
2023/09/24 02:33:29;;;;;;;7.00;4.30;;;;;;;;;;5019539;28;20030;-39
2023/09/24 02:35:54;;;;;;;8.60;4.70;;;;;;;;;;5026217;28;20108;-37
2023/09/24 02:38:22;;;;;;;7.50;3.80;;;;;;;;;;5022255;28;20292;-39
2023/09/24 02:40:47;;;;;;;7.78;4.32;;;;;;;;;;5018603;28;20264;-38
2023/09/24 02:43:13;;;;;;;8.25;4.43;;;;;;;;;;5023029;28;20029;-38
2023/09/24 02:45:38;;;;;;;4.73;3.50;;;;;;;;;;5025015;28;20033;-38
2023/09/24 02:48:06;;;;;;;6.20;3.77;;;;;;;;;;5016568;28;20308;-37
2023/09/24 02:50:31;;;;;;;7.65;4.18;;;;;;;;;;5024641;28;20646;-37
2023/09/24 02:52:58;;;;;;;9.45;4.50;;;;;;;;;;5021413;28;20029;-37
2023/09/24 02:55:25;;;;;;;9.10;4.07;;;;;;;;;;5023041;28;20017;-37
2023/09/24 02:57:50;;;;;;;6.25;4.03;;;;;;;;;;5021916;28;20029;-38
2023/09/24 03:00:20;;;;;;;9.15;4.07;;;;;;;;;;5027467;28;20025;-37
2023/09/24 03:02:47;;;;;;;7.13;4.57;;;;;;;;;;5023353;28;20026;-37
2023/09/24 03:05:19;;;;;;;6.47;4.32;;;;;;;;;;5016417;28;20510;-39
2023/09/24 03:07:44;;;;;;;6.13;4.35;;;;;;;;;;5019761;28;20128;-38
2023/09/24 03:10:10;;;;;;;7.55;4.82;;;;;;;;;;5017511;28;20116;-37
2023/09/24 03:12:36;;;;;;;7.10;4.43;;;;;;;;;;5022960;28;20056;-38
2023/09/24 03:15:02;;;;;;;13.38;4.80;;;;;;;;;;5025543;28;20112;-37
2023/09/24 03:17:28;;;;;;;10.25;5.45;;;;;;;;;;5020947;28;20108;-37
2023/09/24 03:19:53;;;;;;;9.20;4.47;;;;;;;;;;5026369;28;20543;-37
2023/09/24 03:22:18;;;;;;;6.30;4.10;;;;;;;;;;5021437;28;20279;-37
2023/09/24 03:24:44;;;;;;;7.95;4.35;;;;;;;;;;5025907;28;20025;-39
2023/09/24 03:27:09;;;;;;;7.57;4.47;;;;;;;;;;5023667;28;20444;-37
2023/09/24 03:29:34;;;;;;;8.18;4.65;;;;;;;;;;5021625;28;20033;-37
2023/09/24 03:31:59;;;;;;;6.30;4.50;;;;;;;;;;5023709;28;20029;-38
2023/09/24 03:34:25;;;;;;;8.60;4.75;;;;;;;;;;5019684;28;20547;-38
2023/09/24 03:36:50;;;;;;;5.93;4.50;;;;;;;;;;5023478;28;20028;-38
2023/09/24 03:39:15;;;;;;;10.53;5.07;;;;;;;;;;5019900;28;20034;-37
2023/09/24 03:41:40;;;;;;;7.23;4.73;;;;;;;;;;5020824;28;20280;-38
2023/09/24 03:44:06;;;;;;;6.23;4.33;;;;;;;;;;5020413;28;20280;-37
2023/09/24 03:46:31;;;;;;;6.55;4.25;;;;;;;;;;5023666;28;20272;-38
2023/09/24 03:48:56;;;;;;;7.40;4.47;;;;;;;;;;5023292;28;20080;-38
2023/09/24 03:51:22;;;;;;;6.85;4.53;;;;;;;;;;5022224;28;20655;-37
2023/09/24 03:53:47;;;;;;;7.95;4.93;;;;;;;;;;5021704;28;20030;-37
2023/09/24 03:56:12;;;;;;;7.70;5.23;;;;;;;;;;5023289;28;20061;-39
2023/09/24 03:58:38;;;;;;;8.03;5.50;;;;;;;;;;5016715;28;20314;-38
2023/09/24 04:01:09;;;;;;;7.03;4.70;;;;;;;;;;5028572;28;20268;-38
2023/09/24 04:03:35;;;;;;;7.90;4.15;;;;;;;;;;5016981;28;20272;-38
2023/09/24 04:06:06;;;;;;;7.10;4.30;;;;;;;;;;5023882;28;20449;-38
2023/09/24 04:08:31;;;;;;;12.48;4.50;;;;;;;;;;5014141;28;20045;-38
2023/09/24 04:10:56;;;;;;;6.50;4.87;;;;;;;;;;5020280;28;20467;-37
2023/09/24 04:13:22;;;;;;;11.60;5.30;;;;;;;;;;5020824;28;20261;-38
2023/09/24 04:15:47;;;;;;;11.33;5.37;;;;;;;;;;5021442;28;20695;-37
2023/09/24 04:18:12;;;;;;;9.90;4.87;;;;;;;;;;5020312;28;20833;-38
2023/09/24 04:20:37;;;;;;;9.80;5.17;;;;;;;;;;5014845;28;20271;-37
2023/09/24 04:23:02;;;;;;;8.07;5.53;;;;;;;;;;5019945;28;20280;-37
2023/09/24 04:25:28;;;;;;;6.83;5.60;;;;;;;;;;5027472;28;20728;-37
2023/09/24 04:27:53;;;;;;;8.13;4.55;;;;;;;;;;5030669;28;20264;-37
2023/09/24 04:30:19;;;;;;;6.75;4.50;;;;;;;;;;5027166;28;20033;-37
2023/09/24 04:32:48;;;;;;;7.15;4.40;;;;;;;;;;5025146;28;20048;-37
2023/09/24 04:35:13;;;;;;;7.57;4.60;;;;;;;;;;5025012;28;20047;-37
2023/09/24 04:37:40;;;;;;;5.90;4.93;;;;;;;;;;5019236;28;20483;-37
2023/09/24 04:40:14;;;;;;;9.05;4.53;;;;;;;;;;5023773;28;20031;-38
2023/09/24 04:42:41;;;;;;;6.97;4.78;;;;;;;;;;5021265;28;20021;-37
2023/09/24 04:45:06;;;;;;;6.88;5.18;;;;;;;;;;5027991;28;20061;-38
2023/09/24 04:47:31;;;;;;;9.77;5.65;;;;;;;;;;5022108;28;20026;-37
2023/09/24 04:49:57;;;;;;;8.30;4.43;;;;;;;;;;5025604;28;20025;-37
2023/09/24 04:52:23;;;;;;;7.68;5.15;;;;;;;;;;5023524;28;20516;-39
2023/09/24 04:54:48;;;;;;;8.65;4.47;;;;;;;;;;5021035;28;20028;-37
2023/09/24 04:57:13;;;;;;;12.20;6.47;;;;;;;;;;5027362;28;20029;-37
2023/09/24 04:59:39;;;;;;;10.73;5.40;;;;;;;;;;5022175;28;20627;-38
2023/09/24 05:02:05;;;;;;;15.48;7.35;;;;;;;;;;5025009;28;20261;-37
2023/09/24 05:04:32;;;;;;;10.27;6.45;;;;;;;;;;5024542;28;20032;-37
2023/09/24 05:06:57;;;;;;;8.93;6.05;;;;;;;;;;5020554;28;20539;-37
2023/09/24 05:09:23;;;;;;;9.15;6.03;;;;;;;;;;5021105;28;20032;-38
2023/09/24 05:11:49;;;;;;;9.32;3.70;;;;;;;;;;5022123;28;20395;-37
2023/09/24 05:14:14;;;;;;;9.97;5.57;;;;;;;;;;5028715;28;20029;-38
2023/09/24 05:16:39;;;;;;;7.55;4.95;;;;;;;;;;5022423;28;20294;-38
2023/09/24 05:19:05;;;;;;;8.97;5.70;;;;;;;;;;5025170;28;20033;-37
2023/09/24 05:21:31;;;;;;;10.80;5.03;;;;;;;;;;5018509;28;20299;-39
2023/09/24 05:23:57;;;;;;;7.50;4.70;;;;;;;;;;5026883;28;20120;-38
2023/09/24 05:26:22;;;;;;;11.13;5.40;;;;;;;;;;5028450;28;20056;-38
2023/09/24 05:28:48;;;;;;;10.90;4.93;;;;;;;;;;5026306;28;20411;-38
2023/09/24 05:31:16;;;;;;;9.77;4.88;;;;;;;;;;5018396;28;20694;-37
2023/09/24 05:33:41;;;;;;;12.07;6.90;;;;;;;;;;5019786;28;20055;-37
2023/09/24 05:36:08;;;;;;;9.52;5.90;;;;;;;;;;5016117;28;20155;-38
2023/09/24 05:38:33;;;;;;;12.50;6.13;;;;;;;;;;5014304;28;20490;-37
2023/09/24 05:40:59;;;;;;;10.10;5.70;;;;;;;;;;5022210;28;20052;-37
2023/09/24 05:43:24;;;;;;;8.35;5.13;;;;;;;;;;5019166;28;20272;-38
2023/09/24 05:45:50;;;;;;;8.07;5.55;;;;;;;;;;5020141;28;21802;-38
2023/09/24 05:48:15;;;;;;;6.55;5.25;;;;;;;;;;5020787;28;20028;-37
2023/09/24 05:50:41;;;;;;;9.18;6.00;;;;;;;;;;5019453;28;20033;-38
2023/09/24 05:53:07;;;;;;;8.85;5.97;;;;;;;;;;5025978;28;20033;-38
2023/09/24 05:55:33;;;;;;;8.15;5.78;;;;;;;;;;5020584;28;20091;-38
2023/09/24 05:57:58;;;;;;;9.93;5.93;;;;;;;;;;5024120;28;20427;-38
2023/09/24 06:00:24;;;;;;;12.33;6.20;;;;;;;;;;5023247;28;20411;-38
2023/09/24 06:02:49;;;;;;;12.93;6.15;;;;;;;;;;5028948;28;20268;-38
2023/09/24 06:05:15;;;;;;;5.90;3.50;;;;;;;;;;5022666;28;20025;-37
2023/09/24 06:07:40;;;;;;;9.93;5.90;;;;;;;;;;5015828;28;20480;-38
2023/09/24 06:10:07;;;;;;;9.82;5.97;;;;;;;;;;5024349;28;20058;-38
2023/09/24 06:12:32;;;;;;;10.38;6.95;;;;;;;;;;5021407;28;20038;-39
2023/09/24 06:14:58;;;;;;;9.93;5.90;;;;;;;;;;5027348;28;20072;-38
2023/09/24 06:17:23;;;;;;;9.43;6.47;;;;;;;;;;5024134;28;20057;-39
2023/09/24 06:19:49;;;;;;;14.50;7.07;;;;;;;;;;5020499;28;20076;-39
2023/09/24 06:22:14;;;;;;;9.67;5.73;;;;;;;;;;5030389;28;20279;-39
2023/09/24 06:24:39;;;;;;;10.43;6.67;;;;;;;;;;5018802;28;21209;-38
2023/09/24 06:27:04;;;;;;;10.90;7.00;;;;;;;;;;5020449;28;20273;-38
2023/09/24 06:29:32;;;;;;;11.03;6.63;;;;;;;;;;5024302;28;20279;-39
2023/09/24 06:31:58;;;;;;;12.68;7.00;;;;;;;;;;5021522;28;20761;-38
2023/09/24 06:34:24;;;;;;;9.87;7.10;;;;;;;;;;5024267;28;20021;-39
2023/09/24 06:36:49;;;;;;;9.25;6.13;;;;;;;;;;5020980;28;20031;-39
2023/09/24 06:39:15;;;;;;;13.63;7.73;;;;;;;;;;5021487;28;20038;-39
2023/09/24 06:41:40;;;;;;;11.90;6.75;;;;;;;;;;5014488;28;20284;-38
2023/09/24 06:44:05;;;;;;;13.32;6.88;;;;;;;;;;5021178;28;20627;-38
2023/09/24 06:46:31;;;;;;;13.03;7.07;;;;;;;;;;5023867;28;20057;-39
2023/09/24 06:48:57;;;;;;;11.40;7.07;;;;;;;;;;5023515;28;20759;-38
2023/09/24 06:51:22;;;;;;;11.70;6.45;;;;;;;;;;5022714;28;20452;-39
2023/09/24 06:53:50;;;;;;;10.80;6.18;;;;;;;;;;5017407;28;20435;-38
2023/09/24 06:56:16;;;;;;;15.77;6.05;;;;;;;;;;5023674;28;20492;-39
2023/09/24 06:58:41;;;;;;;10.48;5.85;;;;;;;;;;5016204;28;20105;-38
2023/09/24 07:01:06;;;;;;;12.53;5.73;;;;;;;;;;5022418;28;20053;-39
2023/09/24 07:03:32;;;;;;;17.58;6.35;;;;;;;;;;5018000;28;20268;-38
2023/09/24 07:05:57;;;;;;;10.13;6.47;;;;;;;;;;5021916;28;20052;-39
2023/09/24 07:08:22;;;;;;;7.17;3.93;;;;;;;;;;5018176;28;20018;-39
2023/09/24 07:11:10;;;;;;;10.13;6.40;;;;;;;;;;5020778;28;20276;-38
2023/09/24 07:13:35;;;;;;;6.75;3.60;;;;;;;;;;5019428;28;20283;-39
2023/09/24 07:16:00;;;;;;;15.23;6.40;;;;;;;;;;5020754;28;20026;-38
2023/09/24 07:18:27;;;;;;;12.70;6.25;;;;;;;;;;5013585;28;20113;-39
2023/09/24 07:20:52;;;;;;;14.07;6.00;;;;;;;;;;5014179;28;20025;-38
2023/09/24 07:23:18;;;;;;;12.00;6.82;;;;;;;;;;5022361;28;20033;-38
2023/09/24 07:25:43;;;;;;;10.45;6.15;;;;;;;;;;5018788;28;20120;-38
2023/09/24 07:28:08;;;;;;;13.03;6.67;;;;;;;;;;5021967;28;20092;-38
2023/09/24 07:30:35;;;;;;;9.80;6.30;;;;;;;;;;5018848;28;20276;-39
2023/09/24 07:33:00;;;;;;;20.85;6.75;;;;;;;;;;5022245;28;20357;-39
2023/09/24 07:35:25;;;;;;;13.53;6.77;;;;;;;;;;5019293;28;20437;-39
2023/09/24 07:37:51;;;;;;;10.70;6.57;;;;;;;;;;5016148;28;20287;-39
2023/09/24 07:40:16;;;;;;;13.85;7.55;;;;;;;;;;5020948;28;20522;-40
2023/09/24 07:42:41;;;;;;;9.35;5.82;;;;;;;;;;5023268;28;20033;-38
2023/09/24 07:45:07;;;;;;;13.48;7.63;;;;;;;;;;5019652;28;20026;-38
2023/09/24 07:47:33;;;;;;;6.70;3.28;;;;;;;;;;5021452;28;20033;-39
2023/09/24 07:49:58;;;;;;;11.87;6.80;;;;;;;;;;5015930;28;20034;-38
2023/09/24 07:52:23;;;;;;;11.85;6.70;;;;;;;;;;5021730;28;20280;-38
2023/09/24 07:54:49;;;;;;;11.73;6.40;;;;;;;;;;5037643;28;20396;-38
2023/09/24 07:57:15;;;;;;;17.95;6.88;;;;;;;;;;5013093;28;20287;-38
2023/09/24 07:59:41;;;;;;;15.20;7.70;;;;;;;;;;5017240;28;20447;-38
2023/09/24 08:02:06;;;;;;;13.15;7.72;;;;;;;;;;5021090;28;20025;-37
2023/09/24 08:04:32;;;;;;;12.73;6.30;;;;;;;;;;5015043;28;20072;-39
2023/09/24 08:06:57;;;;;;;11.82;6.18;;;;;;;;;;5004288;28;20029;-38
2023/09/24 08:09:22;;;;;;;15.10;6.60;;;;;;;;;;5026247;28;20100;-38
2023/09/24 08:11:47;;;;;;;14.70;6.43;;;;;;;;;;5025971;28;20330;-39
2023/09/24 08:14:13;;;;;;;10.33;6.00;;;;;;;;;;5026994;28;20105;-39
2023/09/24 08:16:38;;;;;;;12.10;5.90;;;;;;;;;;5022282;28;20280;-38
2023/09/24 08:19:03;;;;;;;7.23;3.87;;;;;;;;;;5025002;28;20296;-38
2023/09/24 08:21:28;;;;;;;9.37;5.13;;;;;;;;;;5026976;28;20371;-38
2023/09/24 08:23:54;;;;;;;10.93;6.10;;;;;;;;;;5024363;28;20276;-38
2023/09/24 08:26:19;;;;;;;11.60;5.78;;;;;;;;;;5018102;28;20279;-39
2023/09/24 08:28:44;;;;;;;16.83;6.68;;;;;;;;;;5025382;28;20037;-38
2023/09/24 08:31:10;;;;;;;18.05;5.68;;;;;;;;;;5024369;28;20044;-38
2023/09/24 08:33:35;;;;;;;10.45;5.65;;;;;;;;;;5026521;28;20029;-39
2023/09/24 08:36:00;;;;;;;10.93;5.13;;;;;;;;;;5028120;28;20480;-38
2023/09/24 08:38:25;;;;;;;9.63;5.33;;;;;;;;;;5021949;28;20291;-38
2023/09/24 08:40:51;;;;;;;11.27;5.60;;;;;;;;;;5018082;28;20136;-38
2023/09/24 08:43:19;;;;;;;8.73;5.10;;;;;;;;;;5019259;28;20721;-39
2023/09/24 08:45:44;;;;;;;8.60;4.90;;;;;;;;;;5020793;28;20561;-39
2023/09/24 08:48:10;;;;;;;7.70;4.80;;;;;;;;;;5015528;28;20044;-39
2023/09/24 08:50:36;;;;;;;11.82;4.78;;;;;;;;;;5011906;28;20034;-38
2023/09/24 08:53:05;;;;;;;11.07;5.30;;;;;;;;;;5010064;28;20025;-38
2023/09/24 08:55:30;;;;;;;9.90;3.78;;;;;;;;;;5021351;28;20036;-40
2023/09/24 08:57:55;;;;;;;8.88;5.47;;;;;;;;;;5019280;28;20033;-38
2023/09/24 09:00:21;;;;;;;11.93;4.32;;;;;;;;;;5017631;28;20025;-38
2023/09/24 09:02:46;;;;;;;7.25;3.97;;;;;;;;;;5020060;28;20021;-38
2023/09/24 09:05:18;;;;;;;10.37;4.23;;;;;;;;;;5022911;28;20156;-38
2023/09/24 09:07:56;;;;;;;8.48;4.82;;;;;;;;;;5022333;28;20037;-38
2023/09/24 09:10:31;;;;;;;8.55;3.80;;;;;;;;;;5023630;28;20030;-39
2023/09/24 09:13:07;;;;;;;7.75;4.50;;;;;;;;;;5023611;28;20033;-40
2023/09/24 09:15:33;;;;;;;7.45;4.30;;;;;;;;;;5017246;28;20488;-38
2023/09/24 09:17:59;;;;;;;10.35;3.75;;;;;;;;;;5007738;28;20029;-38
2023/09/24 09:20:46;;;;;;;8.07;3.30;;;;;;;;;;5023223;28;20026;-38
2023/09/24 09:23:18;;;;;;;11.25;4.18;;;;;;;;;;5022359;28;20053;-38
2023/09/24 09:25:50;;;;;;;14.60;4.47;;;;;;;;;;5020852;28;20029;-39
2023/09/24 09:28:29;;;;;;;5.55;3.72;;;;;;;;;;5021666;28;20048;-39
2023/09/24 09:30:58;;;;;;;6.85;3.58;;;;;;;;;;5018173;28;20086;-38
2023/09/24 09:33:25;;;;;;;5.07;3.40;;;;;;;;;;5018522;28;20028;-38
2023/09/24 09:35:51;;;;;;;9.23;3.22;;;;;;;;;;5016236;28;20132;-39
2023/09/24 09:38:16;;;;;;;5.93;3.45;;;;;;;;;;5020568;28;20123;-39
2023/09/24 09:40:42;;;;;;;6.17;2.70;;;;;;;;;;5020650;28;20100;-39
2023/09/24 09:43:08;;;;;;;10.65;4.85;;;;;;;;;;5021858;28;20281;-38
2023/09/24 09:45:34;;;;;;;6.53;2.78;;;;;;;;;;5019298;28;20476;-39
2023/09/24 09:48:01;;;;;;;6.00;2.67;;;;;;;;;;5012013;28;21020;-38
2023/09/24 09:50:29;;;;;;;8.80;3.35;;;;;;;;;;5019011;28;20033;-39
2023/09/24 09:52:54;;;;;;;4.65;2.80;;;;;;;;;;5008107;28;20037;-38
2023/09/24 09:55:20;;;;;;;4.50;2.33;;;;;;;;;;5015392;28;20056;-39
2023/09/24 09:57:46;;;;;;;6.80;2.95;;;;;;;;;;5017138;28;20021;-39
2023/09/24 10:00:12;;;;;;;4.72;2.50;;;;;;;;;;5014237;28;20039;-38
2023/09/24 10:02:42;;;;;;;6.45;2.60;;;;;;;;;;5016403;28;20021;-38
2023/09/24 10:05:08;;;;;;;7.55;2.50;;;;;;;;;;5014546;28;20044;-38
2023/09/24 10:07:39;;;;;;;9.43;3.85;;;;;;;;;;5015314;28;20033;-38
2023/09/24 10:10:23;;;;;;;7.72;3.30;;;;;;;;;;5021237;28;20029;-39
2023/09/24 10:12:48;;;;;;;9.40;2.60;;;;;;;;;;5019472;28;20025;-38
2023/09/24 10:15:25;;;;;;;4.77;2.20;;;;;;;;;;5014764;28;20053;-39
2023/09/24 10:18:14;;;;;;;7.57;1.98;;;;;;;;;;5017789;28;20322;-38
2023/09/24 10:20:48;;;;;;;4.28;2.00;;;;;;;;;;5010013;28;20018;-38
2023/09/24 10:23:29;;;;;;;4.22;1.90;;;;;;;;;;5018465;28;20021;-39
2023/09/24 10:25:56;;;;;;;4.10;1.48;;;;;;;;;;5019401;28;20113;-39
2023/09/24 10:28:21;;;;;;;4.88;1.58;;;;;;;;;;5016106;28;20041;-39
2023/09/24 10:31:12;;;;;;;5.38;1.88;;;;;;;;;;5015741;28;20040;-38
2023/09/24 10:33:54;;;;;;;12.32;4.38;;;;;;;;;;5018313;28;20121;-38
2023/09/24 10:36:33;;;;;;;6.57;3.03;;;;;;;;;;5011352;28;20026;-40
2023/09/24 10:39:13;;;;;;;8.68;2.88;;;;;;;;;;5016360;28;20099;-39
2023/09/24 10:41:58;;;;;;;5.70;2.67;;;;;;;;;;5016334;28;20039;-39
2023/09/24 10:44:23;;;;;;;7.53;2.28;;;;;;;;;;5017854;28;20029;-39
2023/09/24 10:46:48;;;;;;;4.50;1.58;;;;;;;;;;5014574;28;20033;-41
2023/09/24 10:49:17;;;;;;;8.77;2.83;;;;;;;;;;5022759;28;20032;-39
2023/09/24 10:51:42;;;;;;;6.50;2.80;;;;;;;;;;5023667;28;20530;-39
2023/09/24 10:54:15;;;;;;;7.27;1.93;;;;;;;;;;5026344;28;20036;-38
2023/09/24 10:56:40;;;;;;;5.95;1.98;;;;;;;;;;5015366;28;20284;-38
2023/09/24 10:59:06;;;;;;;3.72;1.85;;;;;;;;;;5014562;28;20481;-38
2023/09/24 11:01:31;;;;;;;4.25;1.60;;;;;;;;;;5021811;28;20029;-38
2023/09/24 11:03:56;;;;;;;3.03;1.47;;;;;;;;;;5025177;28;20104;-38
2023/09/24 11:06:29;;;;;;;5.15;1.75;;;;;;;;;;5027266;28;20280;-38
2023/09/24 11:08:55;;;;;;;5.88;2.42;;;;;;;;;;5020685;28;20086;-38
2023/09/24 11:11:21;;;;;;;28.85;12.50;;;;;;;;;;5023147;28;20773;-38
2023/09/24 11:13:47;;;;;;;11.55;4.45;;;;;;;;;;5020569;28;20033;-37
2023/09/24 11:16:15;;;;;;;7.47;3.38;;;;;;;;;;5010684;28;20029;-38
2023/09/24 11:18:46;;;;;;;5.95;1.92;;;;;;;;;;5024246;28;20026;-38
2023/09/24 11:21:13;;;;;;;7.93;1.88;;;;;;;;;;5023003;28;20026;-38
2023/09/24 11:23:38;;;;;;;9.75;2.38;;;;;;;;;;5022809;28;20021;-38
2023/09/24 11:26:03;;;;;;;13.73;5.65;;;;;;;;;;5026667;28;20450;-38
2023/09/24 11:28:32;;;;;;;3.20;1.58;;;;;;;;;;5026519;28;20053;-38
2023/09/24 11:30:57;;;;;;;5.15;1.90;;;;;;;;;;5022887;28;20176;-39
2023/09/24 11:33:23;;;;;;;5.28;1.88;;;;;;;;;;5015996;28;20125;-39
2023/09/24 11:35:50;;;;;;;3.85;1.40;;;;;;;;;;5007111;28;20115;-38
2023/09/24 11:38:28;;;;;;;5.95;1.83;;;;;;;;;;5022555;28;20082;-39
2023/09/24 11:41:04;;;;;;;7.45;1.50;;;;;;;;;;5017833;28;20039;-38
2023/09/24 11:43:29;;;;;;;3.50;1.20;;;;;;;;;;5016143;28;20057;-39
2023/09/24 11:45:55;;;;;;;6.43;1.60;;;;;;;;;;5021163;28;20156;-38
2023/09/24 11:48:22;;;;;;;6.93;2.50;;;;;;;;;;5021236;28;20647;-38
2023/09/24 11:50:54;;;;;;;5.95;1.35;;;;;;;;;;5016424;28;20030;-38
2023/09/24 11:53:20;;;;;;;4.05;1.30;;;;;;;;;;5015775;28;20025;-38
2023/09/24 11:55:47;;;;;;;6.25;2.08;;;;;;;;;;5014183;28;20021;-38
2023/09/24 11:58:13;;;;;;;4.60;1.83;;;;;;;;;;5016781;28;20044;-38
2023/09/24 12:00:42;;;;;;;4.13;1.50;;;;;;;;;;5003112;28;20067;-39
2023/09/24 12:03:07;;;;;;;4.15;3.15;;;;;;;;;;5012233;28;20827;-38
2023/09/24 12:05:36;;;;;;;6.00;1.20;;;;;;;;;;5009014;28;20034;-38
2023/09/24 12:08:02;;;;;;;6.30;1.40;;;;;;;;;;4997720;28;20032;-38
2023/09/24 12:10:27;;;;;;;4.78;1.10;;;;;;;;;;5012704;28;20049;-38
2023/09/24 12:12:52;;;;;;;8.23;1.48;;;;;;;;;;5017846;28;20041;-38
2023/09/24 12:15:18;;;;;;;5.43;0.70;;;;;;;;;;5015684;28;20392;-38
2023/09/24 12:17:44;;;;;;;6.00;1.98;;;;;;;;;;5011320;28;20327;-38
2023/09/24 12:20:11;;;;;;;5.13;1.75;;;;;;;;;;5016992;28;24853;-38
2023/09/24 12:22:36;;;;;;;3.88;1.23;;;;;;;;;;5021754;28;20019;-38
2023/09/24 12:25:02;;;;;;;4.07;1.05;;;;;;;;;;5020527;28;20033;-38
2023/09/24 12:27:30;;;;;;;2.83;1.10;;;;;;;;;;5018901;28;20050;-38
2023/09/24 12:29:55;;;;;;;2.88;0.75;;;;;;;;;;5014593;28;20052;-38
2023/09/24 12:32:21;;;;;;;4.20;0.90;;;;;;;;;;5020943;28;20423;-38
2023/09/24 12:34:46;;;;;;;4.75;1.63;;;;;;;;;;5016100;28;20049;-38
2023/09/24 12:37:11;;;;;;;3.07;1.23;;;;;;;;;;5015190;28;20081;-38
2023/09/24 12:39:37;;;;;;;2.90;1.02;;;;;;;;;;5018526;28;20033;-38
2023/09/24 12:42:02;;;;;;;9.53;1.30;;;;;;;;;;5017030;28;20021;-38
2023/09/24 12:44:28;;;;;;;3.83;0.90;;;;;;;;;;5018169;28;20350;-39
2023/09/24 12:46:54;;;;;;;5.15;0.80;;;;;;;;;;5017370;28;20500;-38
2023/09/24 12:49:20;;;;;;;4.88;1.42;;;;;;;;;;5011937;28;21410;-38
2023/09/24 12:51:45;;;;;;;3.30;0.93;;;;;;;;;;5017840;28;20025;-38
2023/09/24 12:54:11;;;;;;;6.13;1.40;;;;;;;;;;5020228;28;20272;-38
2023/09/24 12:56:36;;;;;;;4.20;1.07;;;;;;;;;;5019438;28;20450;-38
2023/09/24 12:59:01;;;;;;;2.57;0.80;;;;;;;;;;5025497;28;20296;-38
2023/09/24 13:01:26;;;;;;;3.42;0.82;;;;;;;;;;5018904;28;20268;-37
2023/09/24 13:03:52;;;;;;;2.70;0.83;;;;;;;;;;5017620;28;20108;-37
2023/09/24 13:06:18;;;;;;;7.30;1.23;;;;;;;;;;5020530;28;20037;-37
2023/09/24 13:08:43;;;;;;;3.67;1.48;;;;;;;;;;5023213;28;20526;-37
2023/09/24 13:11:09;;;;;;;1.98;1.17;;;;;;;;;;5018925;28;20152;-37
2023/09/24 13:13:34;;;;;;;17.23;7.87;;;;;;;;;;5019650;28;20055;-37
2023/09/24 13:15:59;;;;;;;7.67;3.30;;;;;;;;;;5021483;28;20392;-38
2023/09/24 13:18:24;;;;;;;8.57;1.33;;;;;;;;;;5023737;28;20292;-39
2023/09/24 13:20:50;;;;;;;6.63;2.50;;;;;;;;;;5016823;28;20715;-40
2023/09/24 13:23:15;;;;;;;5.90;1.63;;;;;;;;;;5021189;28;20287;-41
2023/09/24 13:25:42;;;;;;;3.67;0.90;;;;;;;;;;5020314;28;20022;-41
2023/09/24 13:28:07;;;;;;;4.80;1.23;;;;;;;;;;5023176;28;20057;-38
2023/09/24 13:30:34;;;;;;;2.67;0.73;;;;;;;;;;5019918;28;20033;-38
2023/09/24 13:32:59;;;;;;;4.72;0.82;;;;;;;;;;5019427;28;20287;-38
2023/09/24 13:35:24;;;;;;;5.32;1.00;;;;;;;;;;5021921;28;20684;-38
2023/09/24 13:37:50;;;;;;;6.47;2.67;;;;;;;;;;5019455;28;20065;-38
2023/09/24 13:40:16;;;;;;;4.00;0.98;;;;;;;;;;5019670;28;20026;-38
2023/09/24 13:42:41;;;;;;;9.02;0.93;;;;;;;;;;5018011;28;20113;-38
2023/09/24 13:45:07;;;;;;;5.68;2.35;;;;;;;;;;5019025;28;20025;-38
2023/09/24 13:47:33;;;;;;;3.97;0.77;;;;;;;;;;5021279;28;20052;-38
2023/09/24 13:49:58;;;;;;;1.80;0.80;;;;;;;;;;5020146;28;20075;-38
2023/09/24 13:52:23;;;;;;;3.67;0.80;;;;;;;;;;5014046;28;20026;-38
2023/09/24 13:54:48;;;;;;;13.03;1.10;;;;;;;;;;5012876;28;20626;-38
2023/09/24 13:57:14;;;;;;;1.70;0.87;;;;;;;;;;5011708;28;20304;-38
2023/09/24 13:59:39;;;;;;;3.03;0.70;;;;;;;;;;5011050;28;20076;-38
2023/09/24 14:02:05;;;;;;;2.03;0.70;;;;;;;;;;5005539;28;20276;-39
2023/09/24 14:04:31;;;;;;;9.27;4.28;;;;;;;;;;5023962;28;20945;-38
2023/09/24 14:06:56;;;;;;;3.83;1.20;;;;;;;;;;5022582;28;20700;-39
2023/09/24 14:12:20;;;;;;;3.00;0.93;;;;;;;;;;5017442;28;20323;-38
2023/09/24 14:14:45;;;;;;;3.85;1.75;;;;;;;;;;5015811;28;20049;-39
2023/09/24 14:17:10;;;;;;;4.10;1.77;;;;;;;;;;5014959;28;20055;-39
2023/09/24 14:19:35;;;;;;;3.97;1.85;;;;;;;;;;5021844;28;20036;-38
2023/09/24 14:22:01;;;;;;;4.43;1.77;;;;;;;;;;5023339;28;20045;-36
2023/09/24 14:24:26;;;;;;;3.37;1.27;;;;;;;;;;5020244;28;20294;-37
2023/09/24 14:26:51;;;;;;;1.70;0.70;;;;;;;;;;5019662;28;20056;-36
2023/09/24 14:29:17;;;;;;;5.30;1.00;;;;;;;;;;5019336;28;20057;-37
2023/09/24 14:31:42;;;;;;;3.78;0.82;;;;;;;;;;5023216;28;20059;-37
2023/09/24 14:34:08;;;;;;;2.97;0.90;;;;;;;;;;5019148;28;20117;-37
2023/09/24 14:36:33;;;;;;;1.70;0.93;;;;;;;;;;5025745;28;20346;-37
2023/09/24 14:39:02;;;;;;;2.60;0.65;;;;;;;;;;5024596;28;20029;-38
2023/09/24 14:41:27;;;;;;;4.25;1.30;;;;;;;;;;5023929;28;20028;-37